Latest Weather Observations for Noonamah

IDD60801

Issued at 7:01 pm CST Sunday 1 May 2016 (issued every 30 minutes, with the page automatically refreshed every 10 minutes)

About weather observations | Map of weather stations | Latest weather observations for NT | Other Formats
Station Details ID: 014314 Name: NOONAMAH AIRSTRIP Lat: -12.61 Lon: 131.05 Height: 17.5 m
Data from the previous 72 hours. | See also: Recent months at Noonamah
Date/Time
CST
Temp
°C
App
Temp
°C
Dew
Point
Rel
Hum
%
Delta-T
°C
Wind Press
QNH
hPa
Press
MSL
hPa
Rain
since 9 am
mm
Dir
 
Spd
km/h
Gust
km/h
Spd
kts
Gust
kts
01/07:00pm 28.6 33.6 23.9 75 3.3 WNW 4 4 2 2 1009.6 1009.5 0.0
01/06:30pm 29.4 34.4 23.8 72 3.9 W 4 6 2 3 1009.2 1009.1 0.0
01/06:00pm 30.4 35.0 24.1 69 4.4 WSW 7 13 4 7 1009.1 1008.9 0.0
01/05:30pm 31.1 37.0 24.7 68 4.5 N 2 4 1 2 1008.5 1008.3 0.0
01/05:00pm 30.7 35.6 24.6 70 4.3 N 7 13 4 7 1007.8 1007.6 0.0
01/04:30pm 32.0 35.9 24.8 65 5.1 N 13 20 7 11 1007.6 1007.4 0.0
01/04:00pm 34.5 38.9 24.4 55 7.1 NE 9 20 5 11 1007.6 1007.4 0.0
01/03:30pm 34.9 39.2 23.6 52 7.9 NE 7 11 4 6 1007.7 1007.5 0.0
01/03:00pm 34.6 38.5 23.0 51 8.0 NE 7 13 4 7 1008.1 1007.9 0.0
01/02:30pm 34.6 38.2 23.0 51 8.0 ENE 9 15 5 8 1008.5 1008.3 0.0
01/02:00pm 34.7 38.3 23.1 51 8.0 NE 9 11 5 6 1008.9 1008.7 0.0
01/01:30pm 34.0 37.2 23.1 53 7.6 ENE 11 15 6 8 1009.2 1009.1 0.0
01/01:00pm 33.5 37.7 23.2 54 7.1 E 6 11 3 6 1009.7 1009.6 0.0
01/12:30pm 33.2 37.0 23.5 56 6.7 NE 9 17 5 9 1010.1 1010.0 0.0
01/12:00pm 33.0 37.1 23.3 56 6.7 ENE 7 15 4 8 1010.6 1010.5 0.0
01/11:30am 32.4 35.9 23.6 59 6.1 ENE 11 17 6 9 1010.9 1010.8 0.0
01/11:00am 31.8 35.5 23.9 63 5.5 E 11 17 6 9 1011.2 1011.1 0.0
01/10:30am 31.0 35.9 24.6 68 4.5 ENE 7 11 4 6 1011.3 1011.2 0.0
01/10:00am 30.2 35.2 24.8 73 3.8 ENE 7 11 4 6 1011.5 1011.4 0.0
01/09:30am 28.9 34.7 25.1 80 2.7 E 4 6 2 3 1011.7 1011.6 0.0
01/09:00am 27.6 34.3 25.4 88 1.5 CALM 0 2 0 1 1011.7 1011.5 19.0
01/08:30am 26.9 33.6 26.0 95 0.6 ESE 2 4 1 2 1011.7 1011.5 19.0
01/08:00am 26.2 32.3 25.7 97 0.4 SE 4 6 2 3 1011.4 1011.2 19.0
01/07:30am 25.9 32.6 25.4 97 0.4 CALM 0 0 0 0 1011.3 1011.1 19.0
01/07:00am 25.7 31.5 25.2 97 0.3 ESE 4 4 2 2 1011.0 1010.8 19.0
01/06:30am 25.5 32.0 25.0 97 0.3 CALM 0 0 0 0 1010.8 1010.6 19.0
01/06:00am 25.4 31.8 24.9 97 0.3 CALM 0 0 0 0 1010.5 1010.3 19.0
01/05:30am 25.3 31.6 24.8 97 0.3 CALM 0 0 0 0 1010.4 1010.2 19.0
01/05:00am 25.2 31.2 24.9 98 0.2 ENE 2 2 1 1 1010.4 1010.2 19.0
01/04:30am 25.0 30.9 24.7 98 0.2 NNE 2 4 1 2 1010.2 1010.0 18.8
01/04:00am 24.9 30.6 24.4 97 0.3 NW 2 2 1 1 1009.8 1009.6 18.8
01/03:30am 24.8 30.2 24.5 98 0.2 NW 4 4 2 2 1010.1 1009.9 18.8
01/03:00am 24.7 30.4 24.4 98 0.2 S 2 4 1 2 1010.1 1009.9 18.8
01/02:30am 24.3 28.9 23.8 97 0.3 ESE 6 7 3 4 1010.7 1010.5 14.6
01/02:00am 24.0 25.8 23.3 96 0.5 ENE 19 33 10 18 1011.1 1010.9 11.2
01/01:30am 27.0 32.0 24.8 88 1.5 ESE 7 17 4 9 1010.9 1010.7 0.2
01/01:00am 26.9 33.2 24.7 88 1.5 CALM 0 0 0 0 1010.4 1010.2 0.2
01/12:30am 26.9 33.2 24.7 88 1.5 CALM 0 0 0 0 1010.6 1010.4 0.2
01/12:00am 26.7 32.2 24.7 89 1.4 ENE 4 6 2 3 1011.0 1010.8 0.2
 
Date/Time
CST
Temp
°C
App
Temp
°C
Dew
Point
Rel
Hum
%
Delta-T
°C
Wind Press
QNH
hPa
Press
MSL
hPa
Rain
since 9 am
mm
Dir
 
Spd
km/h
Gust
km/h
Spd
kts
Gust
kts
30/11:30pm 27.0 33.2 24.6 87 1.7 CALM 0 0 0 0 1010.8 1010.6 0.2
30/11:00pm 27.1 33.3 24.6 86 1.7 CALM 0 0 0 0 1010.6 1010.4 0.2
30/10:30pm 27.4 33.7 24.7 85 1.9 CALM 0 0 0 0 1010.8 1010.6 0.2
30/10:00pm 27.5 33.7 24.6 84 2.0 CALM 0 0 0 0 1010.7 1010.5 0.2
30/09:30pm 28.3 34.4 24.5 80 2.6 CALM 0 0 0 0 1010.7 1010.5 0.2
30/09:00pm 28.5 33.9 24.5 79 2.8 W 4 6 2 3 1010.3 1010.1 0.2
30/08:30pm 28.9 34.3 24.5 77 3.1 W 4 4 2 2 1010.3 1010.1 0.2
30/08:00pm 29.1 34.3 24.2 75 3.4 NW 4 6 2 3 1010.0 1009.8 0.2
30/07:30pm 29.4 34.7 24.3 74 3.6 WNW 4 7 2 4 1009.7 1009.5 0.2
30/07:00pm 29.9 34.8 24.3 72 3.9 NNW 6 9 3 5 1009.4 1009.2 0.2
30/06:30pm 30.6 35.4 24.5 70 4.3 NNW 7 11 4 6 1008.8 1008.6 0.2
30/06:00pm 31.6 36.0 24.5 66 5.0 NW 9 15 5 8 1008.4 1008.2 0.2
30/05:30pm 32.2 36.3 24.0 62 5.7 NW 9 15 5 8 1007.9 1007.7 0.2
30/05:00pm 32.7 37.0 24.2 61 5.9 NW 9 15 5 8 1007.6 1007.4 0.2
30/04:30pm 34.7 37.6 20.6 43 9.5 NE 6 9 3 5 1007.4 1007.2 0.2
30/04:00pm 35.2 37.2 19.9 40 10.2 ENE 9 13 5 7 1007.4 1007.2 0.2
30/03:30pm 35.4 37.6 19.3 38 10.7 ENE 6 13 3 7 1007.6 1007.4 0.2
30/03:00pm 35.6 37.4 19.5 38 10.7 ENE 9 15 5 8 1007.9 1007.7 0.2
30/02:30pm 35.9 37.6 19.3 37 11.0 E 9 17 5 9 1008.3 1008.1 0.2
30/02:00pm 36.3 38.2 19.7 37 11.1 ESE 9 15 5 8 1008.8 1008.6 0.2
30/01:30pm 34.9 38.1 21.2 45 9.3 SSE 6 11 3 6 1009.5 1009.3 0.2
30/01:00pm 34.7 37.8 21.4 46 9.0 ENE 7 15 4 8 1010.2 1010.0 0.2
30/12:30pm 33.5 36.7 22.3 52 7.7 ENE 9 15 5 8 1010.9 1010.7 0.2
30/12:00pm 33.0 36.5 22.1 52 7.4 ENE 7 13 4 7 1011.4 1011.2 0.2
30/11:30am 32.9 36.1 21.7 51 7.6 NE 7 15 4 8 1011.8 1011.6 0.2
30/11:00am 33.1 36.9 22.8 54 7.1 ENE 7 13 4 7 1012.4 1012.2 0.2
30/10:30am 32.6 36.1 22.1 54 7.2 NE 7 11 4 6 1012.7 1012.5 0.2
30/10:00am 32.0 36.4 23.8 62 5.7 E 7 11 4 6 1012.9 1012.7 0.0
30/09:30am 30.7 36.0 24.4 69 4.4 ENE 4 7 2 4 1012.8 1012.6 0.0
30/09:00am 29.5 35.3 24.6 75 3.4 E 2 4 1 2 1012.5 1012.3 0.4
30/08:30am 27.2 33.0 24.5 85 1.9 NE 2 4 1 2 1012.3 1012.1 0.4
30/08:00am 26.1 31.7 24.3 90 1.2 SE 2 4 1 2 1012.0 1011.8 0.4
30/07:30am 24.7 30.4 23.8 95 0.6 CALM 0 0 0 0 1011.9 1011.7 0.4
30/07:00am 24.3 29.0 23.4 95 0.6 ESE 4 4 2 2 1011.8 1011.6 0.4
30/06:30am 24.3 29.0 23.4 95 0.6 ESE 4 6 2 3 1011.5 1011.3 0.4
30/06:00am 24.4 30.0 23.5 95 0.6 CALM 0 0 0 0 1011.0 1010.8 0.4
30/05:30am 24.2 29.6 23.3 95 0.6 CALM 0 0 0 0 1010.7 1010.5 0.4
30/05:00am 24.3 29.6 23.1 93 0.8 CALM 0 0 0 0 1010.5 1010.3 0.4
30/04:30am 24.6 30.2 23.6 94 0.7 CALM 0 0 0 0 1010.4 1010.2 0.4
30/04:00am 24.6 29.8 23.6 94 0.7 SE 2 2 1 1 1010.3 1010.1 0.4
30/03:30am 24.7 30.3 23.5 93 0.8 CALM 0 0 0 0 1010.0 1009.8 0.4
30/03:00am 24.8 30.5 23.8 94 0.7 CALM 0 0 0 0 1010.1 1009.9 0.4
30/02:30am 25.0 30.7 23.8 93 0.8 CALM 0 0 0 0 1010.1 1009.9 0.4
30/02:00am 25.3 31.2 24.1 93 0.8 CALM 0 0 0 0 1010.3 1010.1 0.4
30/01:30am 25.5 31.4 24.1 92 1.0 CALM 0 0 0 0 1010.4 1010.2 0.4
30/01:00am 25.8 31.8 24.2 91 1.1 CALM 0 0 0 0 1010.5 1010.3 0.4
30/12:30am 26.2 31.9 24.4 90 1.2 WSW 2 2 1 1 1010.8 1010.6 0.4
30/12:00am 26.5 32.0 24.7 90 1.3 WSW 4 6 2 3 1011.0 1010.8 0.4
 
Date/Time
CST
Temp
°C
App
Temp
°C
Dew
Point
Rel
Hum
%
Delta-T
°C
Wind Press
QNH
hPa
Press
MSL
hPa
Rain
since 9 am
mm
Dir
 
Spd
km/h
Gust
km/h
Spd
kts
Gust
kts
29/11:30pm 26.3 31.6 24.3 89 1.4 WSW 4 6 2 3 1011.3 1011.1 0.4
29/11:00pm 26.7 32.2 24.7 89 1.4 SW 4 6 2 3 1011.6 1011.4 0.4
29/10:30pm 27.0 33.1 25.0 89 1.4 SW 2 4 1 2 1011.8 1011.6 0.4
29/10:00pm 27.0 32.6 24.8 88 1.5 W 4 6 2 3 1011.8 1011.6 0.4
29/09:30pm 27.3 33.3 24.9 87 1.7 N 2 4 1 2 1011.9 1011.7 0.4
29/09:00pm 27.8 33.5 25.0 85 2.0 NNW 4 4 2 2 1011.8 1011.6 0.4
29/08:30pm 28.0 33.6 24.8 83 2.2 NNW 4 6 2 3 1011.4 1011.2 0.4
29/08:00pm 28.3 33.8 24.7 81 2.5 NW 4 6 2 3 1011.0 1010.8 0.4
29/07:30pm 28.8 34.0 24.8 79 2.8 NNW 6 7 3 4 1010.6 1010.4 0.4
29/07:00pm 29.4 34.4 24.5 75 3.4 NW 6 9 3 5 1010.2 1010.0 0.4
29/06:30pm 30.4 35.3 24.3 70 4.3 NW 6 9 3 5 1009.9 1009.7 0.4
29/06:00pm 31.6 38.4 26.2 73 3.9 N 2 4 1 2 1009.4 1009.2 0.4
29/05:30pm 31.4 37.5 25.7 71 4.1 N 4 4 2 2 1009.1 1008.9 0.4
29/05:00pm 30.4 37.6 26.1 78 3.1 CALM 0 2 0 1 1008.9 1008.7 0.4
29/04:30pm 29.6 35.4 25.1 77 3.2 NW 4 6 2 3 1008.6 1008.4 0.4
29/04:00pm 29.3 33.7 25.1 78 3.0 NNW 11 19 6 10 1008.6 1008.4 0.4
29/03:30pm 32.8 37.0 23.2 57 6.6 N 6 9 3 5 1008.6 1008.4 0.0
29/03:00pm 34.7 37.6 21.0 44 9.3 ENE 7 17 4 9 1008.7 1008.5 0.0
29/02:30pm 33.7 37.4 20.8 46 8.7 NNE 2 4 1 2 1009.0 1008.8 0.0
29/02:00pm 33.5 36.4 20.6 46 8.6 NE 6 13 3 7 1009.3 1009.1 0.0
29/01:30pm 35.0 38.8 21.6 45 9.1 WSW 4 9 2 5 1009.5 1009.3 0.0
29/01:00pm 33.9 37.3 21.0 47 8.7 ENE 4 6 2 3 1010.0 1009.8 0.0
29/12:30pm 33.6 37.4 21.7 49 8.1 ESE 4 9 2 5 1010.8 1010.6 0.0
29/12:00pm 32.6 36.2 22.1 54 7.2 NE 6 9 3 5 1011.4 1011.2 0.0
29/11:30am 31.7 36.0 22.7 59 6.2 ENE 4 9 2 5 1012.0 1011.8 0.0
29/11:00am 31.8 36.0 22.5 58 6.4 E 4 6 2 3 1012.4 1012.2 0.0
29/10:30am 31.8 36.5 23.3 60 5.9 SSE 4 7 2 4 1012.5 1012.3 0.0
29/10:00am 31.2 36.6 23.8 64 5.1 S 2 6 1 3 1012.5 1012.3 0.0
29/09:30am 30.8 35.5 24.0 67 4.7 SSW 6 9 3 5 1012.4 1012.2 0.0
29/09:00am 29.5 34.5 23.9 72 3.9 S 4 6 2 3 1012.2 1012.0 0.0
29/08:30am 28.5 33.0 23.6 75 3.4 SE 6 7 3 4 1012.1 1011.9 0.0
29/08:00am 26.8 31.5 23.3 81 2.4 SE 4 6 2 3 1011.9 1011.7 0.0
29/07:30am 25.6 30.5 23.1 86 1.7 ESE 2 4 1 2 1011.6 1011.4 0.0
29/07:00am 25.5 30.4 23.0 86 1.7 SE 2 4 1 2 1011.3 1011.1 0.0
29/06:30am 25.6 30.9 23.1 86 1.7 CALM 0 0 0 0 1010.9 1010.7 0.0
29/06:00am 25.7 31.0 23.0 85 1.8 CALM 0 0 0 0 1010.7 1010.5 0.0
29/05:30am 25.6 30.9 23.1 86 1.7 CALM 0 0 0 0 1010.5 1010.3 0.0
29/05:00am 25.8 31.1 23.1 85 1.8 CALM 0 0 0 0 1010.3 1010.1 0.0
29/04:30am 25.6 30.9 23.1 86 1.7 CALM 0 0 0 0 1010.3 1010.1 0.0
29/04:00am 25.8 31.1 23.1 85 1.8 CALM 0 0 0 0 1010.2 1010.0 0.0
29/03:30am 25.9 31.2 23.0 84 2.0 CALM 0 0 0 0 1010.4 1010.2 0.0
29/03:00am 25.7 31.0 23.0 85 1.8 CALM 0 0 0 0 1010.6 1010.4 0.0
29/02:30am 25.8 30.4 23.1 85 1.8 SSE 4 4 2 2 1010.6 1010.4 0.0
29/02:00am 25.4 30.4 22.5 84 2.0 CALM 0 0 0 0 1010.9 1010.7 0.0
29/01:30am 25.7 30.6 22.4 82 2.2 CALM 0 0 0 0 1011.1 1010.9 0.0
29/01:00am 25.9 30.6 22.6 82 2.2 SW 2 4 1 2 1011.3 1011.1 0.0
29/12:30am 26.3 31.0 22.6 80 2.5 SE 2 2 1 1 1011.3 1011.1 0.0
29/12:00am 26.6 31.5 22.4 78 2.8 CALM 0 0 0 0 1011.3 1011.1 0.0
 
Date/Time
CST
Temp
°C
App
Temp
°C
Dew
Point
Rel
Hum
%
Delta-T
°C
Wind Press
QNH
hPa
Press
MSL
hPa
Rain
since 9 am
mm
Dir
 
Spd
km/h
Gust
km/h
Spd
kts
Gust
kts
28/11:30pm 27.1 31.9 22.1 74 3.4 CALM 0 0 0 0 1011.5 1011.3 0.0
28/11:00pm 27.5 31.5 22.0 72 3.7 WSW 4 6 2 3 1011.6 1011.4 0.0
28/10:30pm 28.0 32.0 22.0 70 4.0 SW 4 4 2 2 1011.5 1011.3 0.0
28/10:00pm 28.4 33.1 21.9 68 4.4 CALM 0 0 0 0 1011.4 1011.2 0.0
28/09:30pm 28.5 33.1 21.8 67 4.5 CALM 0 0 0 0 1011.3 1011.1 0.0
28/09:00pm 28.7 32.4 20.7 62 5.3 NNW 2 2 1 1 1010.8 1010.6 0.0
28/08:30pm 29.0 32.4 20.2 59 5.8 N 2 2 1 1 1010.3 1010.1 0.0
28/08:00pm 29.7 32.9 19.7 55 6.5 N 2 2 1 1 1010.0 1009.8 0.0
28/07:30pm 30.1 33.3 19.8 54 6.8 NNE 2 4 1 2 1009.7 1009.5 0.0

Other Formats:

Comma delimited format used in spreadsheet applications
http://www.bom.gov.au/fwo/IDD60801/IDD60801.94105.axf

JavaScript Object Notation format (JSON) in row-major order
http://www.bom.gov.au/fwo/IDD60801/IDD60801.94105.json